This is the latest recevied weather packets stored in our database for station/object K5NWZ. If no packets are shown the sender has not sent any weather packets the latest 10 day(s).
| Time | Temp. | Humidity | Pressure | Rain* | Wind** | Luminosity | Snow |
|---|---|---|---|---|---|---|---|
| 1787969052 | 27.78° C | 32% | 1028.4 hPa | 0 mm | - | 0 W/m² | - |
| 1787968747 | 27.78° C | 32% | 1028.7 hPa | 0 mm | - | 0 W/m² | - |
| 1787968446 | 28.33° C | 32% | 1028.4 hPa | 0 mm | - | 0 W/m² | - |
| 1787968141 | 28.33° C | 32% | 1028.3 hPa | 0 mm | - | 0 W/m² | - |
| 1787967841 | 27.78° C | 33% | 1028.4 hPa | 0 mm | - | 1 W/m² | - |
| 1787967538 | 28.33° C | 35% | 1028.3 hPa | 0 mm | - | 1 W/m² | - |
| 1787967233 | 28.33° C | 34% | 1028.4 hPa | 0 mm | - | 2 W/m² | - |
| 1787966930 | 27.78° C | 35% | 1028.2 hPa | 0 mm | - | 3 W/m² | - |
| 1787966626 | 27.78° C | 35% | 1028.1 hPa | 0 mm | - | 5 W/m² | - |
| 1787966325 | 27.78° C | 35% | 1028.1 hPa | 0 mm | - | 8 W/m² | - |
| 1787966019 | 27.78° C | 36% | 1027.9 hPa | 0 mm | - | 12 W/m² | - |
| 1787965708 | 27.78° C | 38% | 1027.9 hPa | 0 mm | - | 19 W/m² | - |
| 1787965402 | 27.22° C | 41% | 1027.7 hPa | 0 mm | - | 22 W/m² | - |
| 1787965102 | 27.22° C | 41% | 1028 hPa | 0 mm | - | 22 W/m² | - |
| 1787964796 | 27.78° C | 41% | 1028 hPa | 0 mm | - | 22 W/m² | - |
| 1787964492 | 27.78° C | 43% | 1027.5 hPa | 0 mm | - | 22 W/m² | - |
| 1787964188 | 27.78° C | 39% | 1027.5 hPa | 0 mm | - | 21 W/m² | - |
| 1787963886 | 28.33° C | 39% | 1027.6 hPa | 0 mm | - | 25 W/m² | - |
| 1787963581 | 28.33° C | 39% | 1027.5 hPa | 0 mm | - | 33 W/m² | - |
| 1787963271 | 28.89° C | 34% | 1027.7 hPa | 0 mm | - | 38 W/m² | - |
| 1787962970 | 27.22° C | 40% | 1027.7 hPa | 0 mm | - | 29 W/m² | - |
| 1787962668 | 27.78° C | 42% | 1027.5 hPa | 0 mm | - | 25 W/m² | - |
| 1787962364 | 27.78° C | 40% | 1027.4 hPa | 0 mm | - | 27 W/m² | - |
| 1787962058 | 27.78° C | 39% | 1027.3 hPa | 0 mm | - | 34 W/m² | - |
| 1787961753 | 27.78° C | 38% | 1027.2 hPa | 0 mm | - | 40 W/m² | - |
* Rain latest hour (hover to see other rain measurements)
** Current wind speed in m/s (hover to see current wind gust speed)